Aviation Digital Data Service (ADDS)

Output produced by METARs form (1301 UTC 23 March 2019)
found at http://www.aviationweather.gov/metar/data/
 
LETO 231200Z 09006KT 050V140 9999 FEW065 20/01 Q1025 NOSIG
TAF LETO 231100Z 2312/2412 04008KT CAVOK TX21/2315Z TN04/2406Z 
     TEMPO 2312/2318 14010KT 
     PROB30 
     TEMPO 2314/2317 14012G22KT
       
LEZG 231230Z 09002KT CAVOK 20/02 Q1026
TAF LEZG 231100Z 2312/2412 VRB04KT CAVOK TX21/2314Z TN07/2406Z 
     TEMPO 2315/2319 12009KT 
     TEMPO 2408/2412 29009KT
       
LERT 231200Z 11025G35KT 080V140 9999 FEW040 20/08 Q1019 NOSIG
TAF LERT 231100Z 2312/2321 11018KT 9999 FEW040 
     TEMPO 2312/2318 11022G32KT
       
LELC 231230Z 06006KT 030V100 CAVOK 15/09 Q1025 NOSIG
TAF LELC 231100Z 2312/2412 05009KT 9999 SCT040 TX18/2313Z TN10/2406Z
       
LEAB 231200Z VRB07KT 9999 FEW045 15/03 Q1025 NOSIG
TAF LEAB 231100Z 2312/2321 VRB04KT CAVOK 
     BECMG 2312/2314 13015KT 
     PROB30 
     TEMPO 2314/2317 13015G25KT
       
LEBZ 231234Z 08021G33KT 050V110 CAVOK 22/02 Q1021
TAF LEBZ 231100Z 2312/2412 09009KT CAVOK TX24/2316Z TN07/2406Z 
     PROB40 
     TEMPO 2312/2317 09015G25KT
       
LEMO 231200Z 09015KT 050V120 9999 FEW054 20/06 Q1020 NOSIG
TAF LEMO 231100Z 2312/2321 10012KT 9999 FEW040 
     TEMPO 2312/2319 10016G26KT
       
LESA 231230Z 15008KT 080V180 9999 FEW040 19/00 Q1024
TAF LESA 231100Z 2312/2412 12010KT CAVOK TX21/2315Z TNM03/2406Z 
     TEMPO 2321/2406 VRB05KT
       
GCLP 231230Z 01026KT 9999 FEW025 21/11 Q1014 NOSIG
TAF GCLP 230800Z 2309/2409 01024KT 9999 FEW030 TX22/2315Z TN15/2406Z 
     PROB30 
     TEMPO 2310/2320 01022G32KT 
     BECMG 2320/2322 36014KT
       
LIED 231155Z 23005KT 9999 FEW035 22/07 Q1021 RMK FEW VIS MIN 9999 WIND THR35 /////KT WIND THR17 /////KT BLU
TAF LIED 230200Z 2303/2312 33005KT CAVOK
       
LIPR 231250Z 36007KT CAVOK 16/05 Q1024
TAF LIPR 231100Z 2312/2321 35012KT CAVOK 
     BECMG 2318/2320 VRB05KT